createdAt,value
2022-11-13T00:00:39.958Z,4.97
2022-11-13T00:04:00.454Z,4.00
2022-11-13T00:07:20.955Z,4.07
2022-11-13T00:10:41.411Z,4.22
2022-11-13T00:14:01.837Z,4.55
2022-11-13T00:17:22.238Z,4.38
2022-11-13T00:20:42.542Z,4.07
2022-11-13T00:24:02.980Z,3.80
2022-11-13T00:27:23.574Z,4.20
2022-11-13T00:30:43.780Z,4.30
2022-11-13T00:37:44.329Z,4.05
2022-11-13T00:41:04.738Z,3.92
2022-11-13T00:44:25.099Z,3.97
2022-11-13T00:47:45.488Z,4.20
2022-11-13T00:51:06.226Z,4.30
2022-11-13T00:54:26.527Z,3.88
2022-11-13T00:57:47.012Z,4.00
2022-11-13T01:01:11.729Z,3.45
2022-11-13T01:04:32.406Z,4.10
2022-11-13T01:07:53.106Z,3.90
2022-11-13T01:11:16.863Z,3.10
2022-11-13T01:14:37.205Z,3.97
2022-11-13T01:17:57.630Z,3.28
2022-11-13T01:21:21.147Z,3.50
2022-11-13T01:24:41.661Z,3.80
2022-11-13T01:28:02.318Z,3.28
2022-11-13T01:31:25.852Z,3.30
2022-11-13T01:34:46.028Z,3.50
2022-11-13T01:38:06.353Z,3.33
2022-11-13T01:41:32.467Z,3.70
2022-11-13T01:44:59.583Z,3.83
2022-11-13T01:48:20.065Z,3.83
2022-11-13T01:51:47.687Z,3.15
2022-11-13T01:55:14.180Z,3.75
2022-11-13T01:58:34.989Z,3.60
2022-11-13T02:01:56.556Z,3.53
2022-11-13T02:05:16.984Z,3.20
2022-11-13T02:08:38.089Z,3.67
2022-11-13T02:11:59.113Z,3.75
2022-11-13T02:15:23.921Z,3.17
2022-11-13T02:18:45.022Z,3.17
2022-11-13T02:22:26.331Z,3.67
2022-11-13T02:25:50.291Z,3.33
2022-11-13T02:29:10.820Z,3.30
2022-11-13T02:32:31.338Z,3.20
2022-11-13T02:35:52.445Z,2.97
2022-11-13T02:39:14.606Z,3.35
2022-11-13T02:42:35.037Z,3.08
2022-11-13T02:45:55.502Z,2.88
2022-11-13T02:49:15.979Z,2.60
2022-11-13T02:52:37.041Z,3.25
2022-11-13T02:55:57.379Z,3.10
2022-11-13T02:59:17.778Z,3.17
2022-11-13T03:02:38.181Z,3.65
2022-11-13T03:05:58.803Z,3.13
2022-11-13T03:09:19.520Z,2.85
2022-11-13T03:12:40.842Z,3.03
2022-11-13T03:16:13.210Z,3.10
2022-11-13T03:19:33.634Z,2.80
2022-11-13T03:22:53.944Z,2.85
2022-11-13T03:26:17.230Z,2.72
2022-11-13T03:29:37.650Z,2.70
2022-11-13T03:32:58.097Z,3.30
2022-11-13T03:36:18.591Z,2.75
2022-11-13T03:39:38.868Z,3.15
2022-11-13T03:42:59.259Z,2.85
2022-11-13T03:46:19.747Z,2.85
2022-11-13T03:49:40.222Z,2.55
2022-11-13T03:53:00.686Z,2.90
2022-11-13T03:56:21.058Z,2.70
2022-11-13T03:59:41.509Z,2.90
2022-11-13T04:03:02.039Z,2.67
2022-11-13T04:06:22.482Z,3.08
2022-11-13T04:09:42.925Z,2.60
2022-11-13T04:13:03.424Z,2.88
2022-11-13T04:16:23.780Z,2.50
2022-11-13T04:19:44.088Z,2.20
2022-11-13T04:23:08.173Z,2.42
2022-11-13T04:26:28.695Z,2.38
2022-11-13T04:29:48.808Z,3.10
2022-11-13T04:33:09.361Z,2.78
2022-11-13T04:36:29.643Z,2.83
2022-11-13T04:39:50.038Z,2.58
2022-11-13T04:43:10.476Z,2.53
2022-11-13T04:46:30.889Z,2.65
2022-11-13T04:49:51.432Z,2.58
2022-11-13T04:53:11.753Z,2.13
2022-11-13T04:56:32.269Z,2.78
2022-11-13T04:59:52.609Z,2.65
2022-11-13T05:03:13.030Z,2.53
2022-11-13T05:06:33.451Z,2.70
2022-11-13T05:09:53.979Z,2.42
2022-11-13T05:13:14.269Z,2.50
2022-11-13T05:16:37.811Z,2.70
2022-11-13T05:19:58.115Z,2.67
2022-11-13T05:23:18.401Z,2.10
2022-11-13T05:26:39.978Z,2.13
2022-11-13T05:30:00.319Z,2.35
2022-11-13T05:33:20.772Z,2.40
2022-11-13T05:36:41.189Z,2.60
2022-11-13T05:40:01.733Z,2.33
2022-11-13T05:43:22.053Z,2.60
2022-11-13T05:46:42.503Z,2.10
2022-11-13T05:50:03.050Z,2.55
2022-11-13T05:53:23.421Z,2.05
2022-11-13T05:56:44.588Z,2.22
2022-11-13T06:00:06.060Z,2.60
2022-11-13T06:03:26.205Z,1.85
2022-11-13T06:06:46.617Z,2.22
2022-11-13T06:10:07.445Z,2.65
2022-11-13T06:13:28.434Z,2.45
2022-11-13T06:16:48.951Z,2.15
2022-11-13T06:20:09.713Z,2.40
2022-11-13T06:23:32.247Z,2.22
2022-11-13T06:26:53.663Z,2.20
2022-11-13T06:30:14.359Z,2.13
2022-11-13T06:33:35.313Z,3.08
2022-11-13T06:36:55.467Z,3.17
2022-11-13T06:40:16.021Z,2.10
2022-11-13T06:43:36.702Z,2.45
2022-11-13T06:46:56.890Z,2.10
2022-11-13T06:50:17.433Z,2.38
2022-11-13T06:53:37.806Z,2.30
2022-11-13T06:56:58.242Z,1.80
2022-11-13T07:00:18.768Z,2.17
2022-11-13T07:03:39.518Z,1.85
2022-11-13T07:07:00.192Z,2.50
2022-11-13T07:10:20.469Z,2.42
2022-11-13T07:13:40.946Z,12.05
2022-11-13T07:17:10.129Z,7.30
2022-11-13T07:20:31.615Z,4.70
2022-11-13T07:23:51.710Z,4.18
2022-11-13T07:27:12.097Z,3.67
2022-11-13T07:30:32.487Z,3.95
2022-11-13T07:33:52.864Z,4.07
2022-11-13T07:37:13.373Z,3.70
2022-11-13T07:40:33.881Z,3.35
2022-11-13T07:43:54.171Z,3.03
2022-11-13T07:47:14.544Z,3.08
2022-11-13T07:50:36.713Z,3.10
2022-11-13T07:53:57.398Z,3.30
2022-11-13T07:57:17.721Z,2.83
2022-11-13T08:00:38.877Z,2.85
2022-11-13T08:03:59.336Z,3.30
2022-11-13T08:07:19.751Z,2.95
2022-11-13T08:10:40.463Z,2.92
2022-11-13T08:14:00.692Z,3.03
2022-11-13T08:17:21.235Z,2.55
2022-11-13T08:20:41.534Z,2.83
2022-11-13T08:24:01.967Z,2.53
2022-11-13T08:27:23.095Z,2.55
2022-11-13T08:30:44.503Z,2.50
2022-11-13T08:34:04.854Z,2.55
2022-11-13T08:37:25.465Z,2.17
2022-11-13T08:40:46.003Z,2.30
2022-11-13T08:44:06.545Z,2.90
2022-11-13T08:47:29.706Z,2.72
2022-11-13T08:50:54.992Z,2.88
2022-11-13T08:54:15.359Z,2.55
2022-11-13T08:57:35.868Z,2.53
2022-11-13T09:01:01.480Z,2.35
2022-11-13T09:04:22.274Z,2.30
2022-11-13T09:07:42.369Z,2.55
2022-11-13T09:11:05.096Z,2.58
2022-11-13T09:14:25.756Z,2.47
2022-11-13T09:17:45.949Z,2.45
2022-11-13T09:21:06.454Z,2.58
2022-11-13T09:24:26.651Z,2.17
2022-11-13T09:27:56.297Z,1.95
2022-11-13T09:31:16.757Z,2.25
2022-11-13T09:34:37.060Z,2.38
2022-11-13T09:37:57.423Z,2.28
2022-11-13T09:41:29.137Z,2.28
2022-11-13T09:44:57.501Z,1.90
2022-11-13T09:48:25.978Z,2.20
2022-11-13T09:51:52.852Z,2.53
2022-11-13T09:55:16.388Z,2.42
2022-11-13T09:58:51.447Z,2.00
2022-11-13T10:02:36.104Z,2.15
2022-11-13T10:06:19.601Z,2.08
2022-11-13T10:09:48.279Z,1.98
2022-11-13T10:13:14.373Z,2.25
2022-11-13T10:16:42.925Z,2.25
2022-11-13T10:20:11.161Z,1.90
2022-11-13T10:23:35.061Z,2.50
2022-11-13T10:26:59.594Z,2.50
2022-11-13T10:30:20.145Z,2.88
2022-11-13T10:33:40.563Z,2.63
2022-11-13T10:37:47.233Z,2.83
2022-11-13T10:41:15.486Z,2.90
2022-11-13T10:48:04.901Z,2.78
2022-11-13T10:51:27.632Z,2.83
2022-11-13T10:54:48.808Z,2.47
2022-11-13T10:58:17.147Z,2.88
2022-11-13T11:01:37.592Z,2.40
2022-11-13T11:05:06.276Z,2.38
2022-11-13T11:08:36.719Z,2.45
2022-11-13T11:12:27.244Z,2.53
2022-11-13T11:15:58.261Z,2.42
2022-11-13T11:19:22.380Z,2.20
2022-11-13T11:22:44.666Z,2.45
2022-11-13T11:26:26.548Z,2.45
2022-11-13T11:30:04.928Z,2.35
2022-11-13T11:33:33.934Z,2.28
2022-11-13T11:37:15.394Z,2.35
2022-11-13T11:40:45.299Z,2.28
2022-11-13T11:44:22.385Z,2.22
2022-11-13T11:47:43.772Z,2.25
2022-11-13T11:51:08.817Z,2.65
2022-11-13T11:54:51.385Z,2.60
2022-11-13T11:58:45.013Z,2.38
2022-11-13T12:02:42.613Z,2.80
2022-11-13T12:06:34.055Z,2.30
2022-11-13T12:10:09.910Z,2.67
2022-11-13T12:13:40.245Z,2.47
2022-11-13T12:17:16.874Z,2.20
2022-11-13T12:21:04.319Z,2.60
2022-11-13T12:24:50.227Z,2.40
2022-11-13T12:28:46.519Z,2.25
2022-11-13T12:32:15.560Z,2.42
2022-11-13T12:35:37.257Z,2.30
2022-11-13T12:39:19.679Z,2.20
2022-11-13T12:42:46.071Z,2.30
2022-11-13T12:46:10.150Z,2.35
2022-11-13T12:49:35.975Z,2.13
2022-11-13T12:52:59.972Z,2.22
2022-11-13T12:56:27.495Z,2.33
2022-11-13T12:59:54.145Z,2.17
2022-11-13T13:03:32.738Z,2.03
2022-11-13T13:07:36.045Z,2.20
2022-11-13T13:11:15.136Z,2.38
2022-11-13T13:14:47.100Z,2.40
2022-11-13T13:18:16.498Z,2.25
2022-11-13T13:21:42.751Z,2.05
2022-11-13T13:25:11.837Z,2.05
2022-11-13T13:28:39.408Z,1.60
2022-11-13T13:32:22.126Z,2.47
2022-11-13T13:36:03.643Z,2.20
2022-11-13T13:39:29.638Z,2.00
2022-11-13T13:43:20.823Z,2.10
2022-11-13T13:46:41.876Z,2.30
2022-11-13T13:50:07.237Z,2.20
2022-11-13T13:53:34.650Z,2.33
2022-11-13T13:56:57.713Z,2.20
2022-11-13T14:00:20.293Z,2.40
2022-11-13T14:03:40.807Z,2.38
2022-11-13T14:07:02.822Z,2.30
2022-11-13T14:10:28.275Z,2.42
2022-11-13T14:13:48.940Z,2.30
2022-11-13T14:17:11.699Z,2.03
2022-11-13T14:20:52.061Z,2.00
2022-11-13T14:24:42.823Z,2.30
2022-11-13T14:28:03.226Z,2.22
2022-11-13T14:31:35.449Z,2.17
2022-11-13T14:34:58.710Z,2.05
2022-11-13T14:38:23.006Z,2.25
2022-11-13T14:41:58.935Z,2.10
2022-11-13T14:45:25.470Z,2.13
2022-11-13T14:48:54.478Z,2.30
2022-11-13T14:52:26.649Z,2.25
2022-11-13T14:55:52.582Z,1.83
2022-11-13T14:59:27.796Z,1.90
2022-11-13T15:02:48.156Z,2.28
2022-11-13T15:06:18.328Z,2.13
2022-11-13T15:09:38.588Z,2.42
2022-11-13T15:12:59.153Z,2.42
2022-11-13T15:16:28.319Z,1.85
2022-11-13T15:19:51.745Z,2.10
2022-11-13T15:23:15.409Z,1.77
2022-11-13T15:26:35.688Z,2.03
2022-11-13T15:29:56.293Z,1.92
2022-11-13T15:33:16.893Z,2.03
2022-11-13T15:36:37.429Z,1.80
2022-11-13T15:39:57.976Z,2.28
2022-11-13T15:43:22.077Z,2.20
2022-11-13T15:46:42.225Z,2.22
2022-11-13T15:50:20.174Z,2.22
2022-11-13T15:53:40.701Z,1.77
2022-11-13T15:57:01.146Z,2.20
2022-11-13T16:00:27.513Z,2.20
2022-11-13T16:03:48.024Z,2.03
2022-11-13T16:07:15.947Z,2.17
2022-11-13T16:10:36.092Z,2.70
2022-11-13T16:13:56.677Z,2.70
2022-11-13T16:17:20.271Z,2.22
2022-11-13T16:20:40.750Z,2.55
2022-11-13T16:24:01.248Z,2.72
2022-11-13T16:27:30.869Z,2.38
2022-11-13T16:30:51.340Z,2.22
2022-11-13T16:34:12.154Z,2.47
2022-11-13T16:37:32.290Z,2.55
2022-11-13T16:40:52.787Z,2.20
2022-11-13T16:44:13.096Z,2.20
2022-11-13T16:47:33.540Z,2.40
2022-11-13T16:50:54.081Z,1.90
2022-11-13T16:54:14.771Z,2.35
2022-11-13T16:57:34.823Z,1.92
2022-11-13T17:00:59.927Z,2.45
2022-11-13T17:04:20.650Z,2.17
2022-11-13T17:07:41.650Z,2.28
2022-11-13T17:11:02.055Z,1.92
2022-11-13T17:14:22.601Z,2.30
2022-11-13T17:17:43.005Z,2.25
2022-11-13T17:21:03.537Z,2.38
2022-11-13T17:24:24.049Z,2.10
2022-11-13T17:27:44.630Z,2.17
2022-11-13T17:31:08.387Z,2.13
2022-11-13T17:34:28.430Z,1.63
2022-11-13T17:37:48.914Z,1.98
2022-11-13T17:41:12.000Z,2.20
2022-11-13T17:44:32.590Z,1.90
2022-11-13T17:47:52.958Z,2.03
2022-11-13T17:51:15.215Z,2.22
2022-11-13T17:54:35.341Z,2.10
2022-11-13T17:57:59.738Z,1.83
2022-11-13T18:01:22.098Z,2.22
2022-11-13T18:04:42.510Z,2.08
2022-11-13T18:08:02.894Z,1.63
2022-11-13T18:11:25.894Z,1.90
2022-11-13T18:14:52.149Z,1.98
2022-11-13T18:18:12.354Z,1.90
2022-11-13T18:21:34.572Z,1.95
2022-11-13T18:24:55.066Z,1.88
2022-11-13T18:28:15.318Z,2.00
2022-11-13T18:31:35.884Z,1.80
2022-11-13T18:34:55.927Z,2.03
2022-11-13T18:38:16.278Z,2.30
2022-11-13T18:41:36.921Z,2.25
2022-11-13T18:44:58.661Z,1.63
2022-11-13T18:48:21.695Z,1.90
2022-11-13T18:51:43.387Z,1.80
2022-11-13T18:55:04.040Z,2.15
2022-11-13T18:58:24.505Z,2.05
2022-11-13T19:01:45.459Z,2.20
2022-11-13T19:05:05.855Z,2.40
2022-11-13T19:08:26.586Z,2.17
2022-11-13T19:11:47.490Z,2.10
2022-11-13T19:15:08.322Z,1.80
2022-11-13T19:18:29.165Z,1.95
2022-11-13T19:21:49.935Z,2.25
2022-11-13T19:25:10.481Z,2.03
2022-11-13T19:28:31.237Z,2.00
2022-11-13T19:31:53.608Z,2.22
2022-11-13T19:35:14.197Z,1.85
2022-11-13T19:38:35.366Z,1.80
2022-11-13T19:41:55.821Z,1.80
2022-11-13T19:45:16.190Z,2.00
2022-11-13T19:48:38.669Z,1.98
2022-11-13T19:51:58.785Z,2.28
2022-11-13T19:55:19.276Z,1.95
2022-11-13T19:58:42.945Z,1.95
2022-11-13T20:02:03.337Z,1.88
2022-11-13T20:05:23.916Z,2.22
2022-11-13T20:08:44.651Z,2.05
2022-11-13T20:12:05.150Z,2.03
2022-11-13T20:15:25.654Z,1.75
2022-11-13T20:18:46.582Z,2.45
2022-11-13T20:22:06.730Z,1.77
2022-11-13T20:25:28.566Z,2.33
2022-11-13T20:28:48.838Z,2.42
2022-11-13T20:32:09.206Z,2.08
2022-11-13T20:35:29.554Z,2.33
2022-11-13T20:38:52.813Z,2.00
2022-11-13T20:42:13.143Z,2.85
2022-11-13T20:45:33.434Z,2.00
2022-11-13T20:48:53.929Z,2.38
2022-11-13T20:52:14.338Z,2.65
2022-11-13T20:55:34.809Z,2.00
2022-11-13T20:58:55.527Z,2.10
2022-11-13T21:02:15.857Z,2.50
2022-11-13T21:05:36.234Z,3.00
2022-11-13T21:08:58.031Z,2.65
2022-11-13T21:12:18.238Z,1.98
2022-11-13T21:15:39.001Z,2.05
2022-11-13T21:19:00.109Z,2.40
2022-11-13T21:22:20.294Z,2.35
2022-11-13T21:25:40.849Z,2.75
2022-11-13T21:29:01.274Z,2.65
2022-11-13T21:32:21.770Z,1.90
2022-11-13T21:35:42.164Z,2.70
2022-11-13T21:39:02.757Z,2.28
2022-11-13T21:42:23.135Z,2.47
2022-11-13T21:45:43.478Z,2.63
2022-11-13T21:49:06.698Z,2.03
2022-11-13T21:52:27.165Z,3.00
2022-11-13T21:55:51.387Z,2.55
2022-11-13T21:59:11.833Z,2.50
2022-11-13T22:02:32.303Z,2.60
2022-11-13T22:06:15.925Z,2.70
2022-11-13T22:09:37.501Z,2.67
2022-11-13T22:12:57.729Z,2.47
2022-11-13T22:16:18.484Z,2.50
2022-11-13T22:19:38.852Z,2.42
2022-11-13T22:22:59.203Z,2.08
2022-11-13T22:26:20.872Z,2.28
2022-11-13T22:29:41.529Z,2.95
2022-11-13T22:33:02.111Z,2.75
2022-11-13T22:36:28.065Z,2.20
2022-11-13T22:39:48.362Z,2.53
2022-11-13T22:43:08.783Z,2.75
2022-11-13T22:46:31.291Z,2.40
2022-11-13T22:49:51.349Z,2.20
2022-11-13T22:53:14.575Z,2.35
2022-11-13T22:56:37.638Z,2.55
2022-11-13T22:59:57.830Z,2.92
2022-11-13T23:03:18.378Z,2.78
2022-11-13T23:06:39.038Z,2.80
2022-11-13T23:09:59.391Z,2.05
2022-11-13T23:13:19.907Z,2.75
2022-11-13T23:16:40.311Z,2.65
2022-11-13T23:20:00.749Z,3.28
2022-11-13T23:23:21.135Z,2.63
2022-11-13T23:26:41.480Z,2.65
2022-11-13T23:30:01.908Z,3.13
2022-11-13T23:33:22.574Z,2.70
2022-11-13T23:36:42.641Z,2.80
2022-11-13T23:40:03.225Z,2.50
2022-11-13T23:43:36.424Z,2.75
2022-11-13T23:47:04.899Z,2.55
2022-11-13T23:50:25.827Z,2.80
2022-11-13T23:53:46.314Z,2.72
2022-11-13T23:57:07.040Z,2.65
